sensor_id;sensor_type;location;lat;lon;timestamp;P1;durP1;ratioP1;P2;durP2;ratioP2
10977;SDS011;5542;48.272;10.794;2024-01-15T00:00:12;8.85;;;6.15;;
10977;SDS011;5542;48.272;10.794;2024-01-15T00:02:39;8.10;;;5.97;;
10977;SDS011;5542;48.272;10.794;2024-01-15T00:05:07;8.73;;;6.00;;
10977;SDS011;5542;48.272;10.794;2024-01-15T00:07:34;7.55;;;6.13;;
10977;SDS011;5542;48.272;10.794;2024-01-15T00:10:01;10.25;;;6.18;;
10977;SDS011;5542;48.272;10.794;2024-01-15T00:12:27;10.30;;;6.63;;
10977;SDS011;5542;48.272;10.794;2024-01-15T00:14:54;9.40;;;6.00;;
10977;SDS011;5542;48.272;10.794;2024-01-15T00:17:21;9.97;;;6.57;;
10977;SDS011;5542;48.272;10.794;2024-01-15T00:19:47;8.50;;;6.22;;
10977;SDS011;5542;48.272;10.794;2024-01-15T00:22:15;9.32;;;6.13;;
10977;SDS011;5542;48.272;10.794;2024-01-15T00:24:42;9.40;;;6.07;;
10977;SDS011;5542;48.272;10.794;2024-01-15T00:27:08;9.90;;;6.15;;
10977;SDS011;5542;48.272;10.794;2024-01-15T00:29:35;9.05;;;5.97;;
10977;SDS011;5542;48.272;10.794;2024-01-15T00:32:01;10.02;;;6.60;;
10977;SDS011;5542;48.272;10.794;2024-01-15T00:34:28;9.93;;;6.15;;
10977;SDS011;5542;48.272;10.794;2024-01-15T00:36:55;9.55;;;6.10;;
10977;SDS011;5542;48.272;10.794;2024-01-15T00:39:23;7.28;;;5.40;;
10977;SDS011;5542;48.272;10.794;2024-01-15T00:41:49;8.07;;;5.80;;
10977;SDS011;5542;48.272;10.794;2024-01-15T00:44:16;9.47;;;5.73;;
10977;SDS011;5542;48.272;10.794;2024-01-15T00:46:43;8.18;;;5.53;;
10977;SDS011;5542;48.272;10.794;2024-01-15T00:49:10;8.98;;;5.45;;
10977;SDS011;5542;48.272;10.794;2024-01-15T00:51:38;8.80;;;5.72;;
10977;SDS011;5542;48.272;10.794;2024-01-15T00:54:05;8.40;;;5.50;;
10977;SDS011;5542;48.272;10.794;2024-01-15T00:56:33;7.43;;;4.90;;
10977;SDS011;5542;48.272;10.794;2024-01-15T00:59:00;9.63;;;5.60;;
10977;SDS011;5542;48.272;10.794;2024-01-15T01:01:26;8.25;;;5.00;;
10977;SDS011;5542;48.272;10.794;2024-01-15T01:03:53;8.80;;;5.25;;
10977;SDS011;5542;48.272;10.794;2024-01-15T01:06:19;8.18;;;5.18;;
10977;SDS011;5542;48.272;10.794;2024-01-15T01:08:46;8.43;;;5.68;;
10977;SDS011;5542;48.272;10.794;2024-01-15T01:11:13;8.35;;;5.38;;
10977;SDS011;5542;48.272;10.794;2024-01-15T01:13:41;8.32;;;5.13;;
10977;SDS011;5542;48.272;10.794;2024-01-15T01:16:07;7.80;;;5.30;;
10977;SDS011;5542;48.272;10.794;2024-01-15T01:18:34;7.97;;;5.43;;
10977;SDS011;5542;48.272;10.794;2024-01-15T01:21:01;7.15;;;4.63;;
10977;SDS011;5542;48.272;10.794;2024-01-15T01:23:27;9.30;;;5.50;;
10977;SDS011;5542;48.272;10.794;2024-01-15T01:25:54;8.60;;;5.28;;
10977;SDS011;5542;48.272;10.794;2024-01-15T01:28:21;8.88;;;5.43;;
10977;SDS011;5542;48.272;10.794;2024-01-15T01:30:49;7.45;;;4.95;;
10977;SDS011;5542;48.272;10.794;2024-01-15T01:33:15;7.53;;;5.10;;
10977;SDS011;5542;48.272;10.794;2024-01-15T01:35:42;6.97;;;5.03;;
10977;SDS011;5542;48.272;10.794;2024-01-15T01:38:08;7.00;;;5.20;;
10977;SDS011;5542;48.272;10.794;2024-01-15T01:40:35;8.15;;;5.10;;
10977;SDS011;5542;48.272;10.794;2024-01-15T01:43:02;8.13;;;5.10;;
10977;SDS011;5542;48.272;10.794;2024-01-15T01:45:29;7.85;;;5.20;;
10977;SDS011;5542;48.272;10.794;2024-01-15T01:47:57;6.82;;;5.13;;
10977;SDS011;5542;48.272;10.794;2024-01-15T01:50:23;6.65;;;4.88;;
10977;SDS011;5542;48.272;10.794;2024-01-15T01:52:50;8.23;;;5.43;;
10977;SDS011;5542;48.272;10.794;2024-01-15T01:55:18;7.40;;;4.82;;
10977;SDS011;5542;48.272;10.794;2024-01-15T01:57:46;8.13;;;4.95;;
10977;SDS011;5542;48.272;10.794;2024-01-15T02:00:13;8.23;;;4.97;;
10977;SDS011;5542;48.272;10.794;2024-01-15T02:02:41;6.22;;;4.63;;
10977;SDS011;5542;48.272;10.794;2024-01-15T02:05:10;7.28;;;4.60;;
10977;SDS011;5542;48.272;10.794;2024-01-15T02:07:38;7.10;;;4.90;;
10977;SDS011;5542;48.272;10.794;2024-01-15T02:10:05;7.38;;;4.72;;
10977;SDS011;5542;48.272;10.794;2024-01-15T02:12:32;7.75;;;4.90;;
10977;SDS011;5542;48.272;10.794;2024-01-15T02:14:58;8.82;;;5.00;;
10977;SDS011;5542;48.272;10.794;2024-01-15T02:17:25;8.65;;;5.20;;
10977;SDS011;5542;48.272;10.794;2024-01-15T02:19:52;5.95;;;4.75;;
10977;SDS011;5542;48.272;10.794;2024-01-15T02:22:20;6.50;;;4.68;;
10977;SDS011;5542;48.272;10.794;2024-01-15T02:24:48;6.72;;;4.50;;
10977;SDS011;5542;48.272;10.794;2024-01-15T02:27:14;8.50;;;4.77;;
10977;SDS011;5542;48.272;10.794;2024-01-15T02:29:41;8.35;;;4.65;;
10977;SDS011;5542;48.272;10.794;2024-01-15T02:32:08;6.80;;;4.13;;
10977;SDS011;5542;48.272;10.794;2024-01-15T02:34:35;8.02;;;4.63;;
10977;SDS011;5542;48.272;10.794;2024-01-15T02:37:02;6.30;;;4.38;;
10977;SDS011;5542;48.272;10.794;2024-01-15T02:39:28;7.55;;;5.03;;
10977;SDS011;5542;48.272;10.794;2024-01-15T02:41:56;6.03;;;3.95;;
10977;SDS011;5542;48.272;10.794;2024-01-15T02:44:23;6.10;;;4.27;;
10977;SDS011;5542;48.272;10.794;2024-01-15T02:46:49;6.38;;;4.28;;
10977;SDS011;5542;48.272;10.794;2024-01-15T02:49:16;5.97;;;4.20;;
10977;SDS011;5542;48.272;10.794;2024-01-15T02:51:42;7.22;;;4.65;;
10977;SDS011;5542;48.272;10.794;2024-01-15T02:54:10;8.02;;;4.97;;
10977;SDS011;5542;48.272;10.794;2024-01-15T02:56:36;6.47;;;4.65;;
10977;SDS011;5542;48.272;10.794;2024-01-15T02:59:04;7.50;;;4.78;;
10977;SDS011;5542;48.272;10.794;2024-01-15T03:01:31;6.20;;;4.50;;
10977;SDS011;5542;48.272;10.794;2024-01-15T03:03:57;5.33;;;4.50;;
10977;SDS011;5542;48.272;10.794;2024-01-15T03:06:24;6.78;;;4.43;;
10977;SDS011;5542;48.272;10.794;2024-01-15T03:08:50;6.07;;;4.30;;
10977;SDS011;5542;48.272;10.794;2024-01-15T03:11:17;8.30;;;5.03;;
10977;SDS011;5542;48.272;10.794;2024-01-15T03:13:43;5.85;;;4.25;;
10977;SDS011;5542;48.272;10.794;2024-01-15T03:16:11;8.05;;;5.20;;
10977;SDS011;5542;48.272;10.794;2024-01-15T03:18:38;6.80;;;4.60;;
10977;SDS011;5542;48.272;10.794;2024-01-15T03:21:04;7.15;;;4.55;;
10977;SDS011;5542;48.272;10.794;2024-01-15T03:23:32;6.38;;;4.13;;
10977;SDS011;5542;48.272;10.794;2024-01-15T03:25:58;6.53;;;4.55;;
10977;SDS011;5542;48.272;10.794;2024-01-15T03:28:25;6.40;;;4.30;;
10977;SDS011;5542;48.272;10.794;2024-01-15T03:30:51;6.45;;;4.15;;
10977;SDS011;5542;48.272;10.794;2024-01-15T03:33:19;6.22;;;4.72;;
10977;SDS011;5542;48.272;10.794;2024-01-15T03:35:46;5.35;;;4.22;;
10977;SDS011;5542;48.272;10.794;2024-01-15T03:38:12;5.90;;;4.15;;
10977;SDS011;5542;48.272;10.794;2024-01-15T03:40:39;7.30;;;4.57;;
10977;SDS011;5542;48.272;10.794;2024-01-15T03:43:06;7.38;;;4.20;;
10977;SDS011;5542;48.272;10.794;2024-01-15T03:45:32;5.57;;;4.10;;
10977;SDS011;5542;48.272;10.794;2024-01-15T03:47:59;5.55;;;4.25;;
10977;SDS011;5542;48.272;10.794;2024-01-15T03:50:27;6.85;;;4.45;;
10977;SDS011;5542;48.272;10.794;2024-01-15T03:52:53;5.53;;;3.90;;
10977;SDS011;5542;48.272;10.794;2024-01-15T03:55:20;5.05;;;4.22;;
10977;SDS011;5542;48.272;10.794;2024-01-15T03:57:46;4.85;;;3.78;;
10977;SDS011;5542;48.272;10.794;2024-01-15T04:00:14;5.38;;;3.90;;
10977;SDS011;5542;48.272;10.794;2024-01-15T04:02:42;5.90;;;4.10;;
10977;SDS011;5542;48.272;10.794;2024-01-15T04:05:09;5.82;;;4.10;;
10977;SDS011;5542;48.272;10.794;2024-01-15T04:07:37;6.70;;;4.18;;
10977;SDS011;5542;48.272;10.794;2024-01-15T04:10:04;6.18;;;3.78;;
10977;SDS011;5542;48.272;10.794;2024-01-15T04:12:31;4.03;;;3.10;;
10977;SDS011;5542;48.272;10.794;2024-01-15T04:14:57;4.72;;;3.40;;
10977;SDS011;5542;48.272;10.794;2024-01-15T04:17:24;4.95;;;3.50;;
10977;SDS011;5542;48.272;10.794;2024-01-15T04:19:51;5.63;;;3.55;;
10977;SDS011;5542;48.272;10.794;2024-01-15T04:22:17;3.83;;;3.22;;
10977;SDS011;5542;48.272;10.794;2024-01-15T04:24:45;3.67;;;3.22;;
10977;SDS011;5542;48.272;10.794;2024-01-15T04:27:12;5.45;;;3.30;;
10977;SDS011;5542;48.272;10.794;2024-01-15T04:29:38;4.55;;;3.42;;
10977;SDS011;5542;48.272;10.794;2024-01-15T04:32:05;4.43;;;3.47;;
10977;SDS011;5542;48.272;10.794;2024-01-15T04:34:32;4.57;;;3.08;;
10977;SDS011;5542;48.272;10.794;2024-01-15T04:36:58;3.97;;;2.95;;
10977;SDS011;5542;48.272;10.794;2024-01-15T04:39:25;4.97;;;3.30;;
10977;SDS011;5542;48.272;10.794;2024-01-15T04:41:53;8.85;;;4.22;;
10977;SDS011;5542;48.272;10.794;2024-01-15T04:44:20;4.70;;;3.30;;
10977;SDS011;5542;48.272;10.794;2024-01-15T04:46:46;4.60;;;3.05;;
10977;SDS011;5542;48.272;10.794;2024-01-15T04:49:13;6.15;;;3.65;;
10977;SDS011;5542;48.272;10.794;2024-01-15T04:51:39;6.40;;;3.85;;
10977;SDS011;5542;48.272;10.794;2024-01-15T04:54:06;6.88;;;3.90;;
10977;SDS011;5542;48.272;10.794;2024-01-15T04:56:33;10.73;;;4.70;;
10977;SDS011;5542;48.272;10.794;2024-01-15T04:59:01;7.50;;;3.63;;
10977;SDS011;5542;48.272;10.794;2024-01-15T05:01:30;9.63;;;4.65;;
10977;SDS011;5542;48.272;10.794;2024-01-15T05:03:58;4.32;;;2.88;;
10977;SDS011;5542;48.272;10.794;2024-01-15T05:06:25;4.03;;;2.92;;
10977;SDS011;5542;48.272;10.794;2024-01-15T05:08:51;6.35;;;3.72;;
10977;SDS011;5542;48.272;10.794;2024-01-15T05:11:18;4.28;;;3.00;;
10977;SDS011;5542;48.272;10.794;2024-01-15T05:13:45;4.22;;;2.80;;
10977;SDS011;5542;48.272;10.794;2024-01-15T05:16:13;7.18;;;4.40;;
10977;SDS011;5542;48.272;10.794;2024-01-15T05:18:39;4.43;;;2.90;;
10977;SDS011;5542;48.272;10.794;2024-01-15T05:21:06;3.58;;;3.10;;
10977;SDS011;5542;48.272;10.794;2024-01-15T05:23:32;4.70;;;3.47;;
10977;SDS011;5542;48.272;10.794;2024-01-15T05:26:00;3.42;;;2.58;;
10977;SDS011;5542;48.272;10.794;2024-01-15T05:28:27;6.72;;;4.03;;
10977;SDS011;5542;48.272;10.794;2024-01-15T05:30:54;4.40;;;3.25;;
10977;SDS011;5542;48.272;10.794;2024-01-15T05:33:23;3.38;;;2.70;;
10977;SDS011;5542;48.272;10.794;2024-01-15T05:35:49;5.07;;;3.00;;
10977;SDS011;5542;48.272;10.794;2024-01-15T05:38:16;3.50;;;3.05;;
10977;SDS011;5542;48.272;10.794;2024-01-15T05:40:43;3.50;;;2.67;;
10977;SDS011;5542;48.272;10.794;2024-01-15T05:43:09;3.50;;;3.08;;
10977;SDS011;5542;48.272;10.794;2024-01-15T05:45:37;4.07;;;3.20;;
10977;SDS011;5542;48.272;10.794;2024-01-15T05:48:04;4.68;;;2.75;;
10977;SDS011;5542;48.272;10.794;2024-01-15T05:50:32;4.30;;;3.47;;
10977;SDS011;5542;48.272;10.794;2024-01-15T05:52:59;4.32;;;2.90;;
10977;SDS011;5542;48.272;10.794;2024-01-15T05:55:25;3.00;;;2.70;;
10977;SDS011;5542;48.272;10.794;2024-01-15T05:57:52;3.10;;;2.67;;
10977;SDS011;5542;48.272;10.794;2024-01-15T06:00:19;5.85;;;4.70;;
10977;SDS011;5542;48.272;10.794;2024-01-15T06:02:45;4.50;;;3.57;;
10977;SDS011;5542;48.272;10.794;2024-01-15T06:05:12;4.07;;;2.92;;
10977;SDS011;5542;48.272;10.794;2024-01-15T06:07:41;4.63;;;3.13;;
10977;SDS011;5542;48.272;10.794;2024-01-15T06:10:08;3.13;;;2.83;;
10977;SDS011;5542;48.272;10.794;2024-01-15T06:12:34;4.15;;;2.90;;
10977;SDS011;5542;48.272;10.794;2024-01-15T06:15:01;3.37;;;2.77;;
10977;SDS011;5542;48.272;10.794;2024-01-15T06:17:28;3.53;;;2.83;;
10977;SDS011;5542;48.272;10.794;2024-01-15T06:19:54;3.53;;;2.70;;
10977;SDS011;5542;48.272;10.794;2024-01-15T06:22:22;3.85;;;3.42;;
10977;SDS011;5542;48.272;10.794;2024-01-15T06:24:50;3.30;;;2.88;;
10977;SDS011;5542;48.272;10.794;2024-01-15T06:27:16;3.28;;;2.63;;
10977;SDS011;5542;48.272;10.794;2024-01-15T06:29:44;3.53;;;3.10;;
10977;SDS011;5542;48.272;10.794;2024-01-15T06:32:13;5.00;;;3.45;;
10977;SDS011;5542;48.272;10.794;2024-01-15T06:34:40;4.05;;;3.20;;
10977;SDS011;5542;48.272;10.794;2024-01-15T06:37:06;3.95;;;3.10;;
10977;SDS011;5542;48.272;10.794;2024-01-15T06:39:33;4.18;;;3.10;;
10977;SDS011;5542;48.272;10.794;2024-01-15T06:42:01;3.45;;;3.10;;
10977;SDS011;5542;48.272;10.794;2024-01-15T06:44:28;3.50;;;2.92;;
10977;SDS011;5542;48.272;10.794;2024-01-15T06:46:55;4.28;;;3.38;;
10977;SDS011;5542;48.272;10.794;2024-01-15T06:49:27;6.87;;;3.70;;
10977;SDS011;5542;48.272;10.794;2024-01-15T06:51:53;7.13;;;4.03;;
10977;SDS011;5542;48.272;10.794;2024-01-15T06:54:20;3.63;;;2.72;;
10977;SDS011;5542;48.272;10.794;2024-01-15T06:56:47;3.72;;;2.85;;
10977;SDS011;5542;48.272;10.794;2024-01-15T06:59:15;5.27;;;3.90;;
10977;SDS011;5542;48.272;10.794;2024-01-15T07:01:41;4.50;;;3.10;;
10977;SDS011;5542;48.272;10.794;2024-01-15T07:04:08;4.22;;;2.88;;
10977;SDS011;5542;48.272;10.794;2024-01-15T07:06:34;6.38;;;4.07;;
10977;SDS011;5542;48.272;10.794;2024-01-15T07:09:01;9.35;;;5.00;;
10977;SDS011;5542;48.272;10.794;2024-01-15T07:11:28;4.27;;;3.27;;
10977;SDS011;5542;48.272;10.794;2024-01-15T07:13:54;6.43;;;4.00;;
10977;SDS011;5542;48.272;10.794;2024-01-15T07:16:22;5.53;;;3.53;;
10977;SDS011;5542;48.272;10.794;2024-01-15T07:18:49;4.53;;;2.87;;
10977;SDS011;5542;48.272;10.794;2024-01-15T07:21:15;4.38;;;3.17;;
10977;SDS011;5542;48.272;10.794;2024-01-15T07:23:42;4.57;;;2.95;;
10977;SDS011;5542;48.272;10.794;2024-01-15T07:26:09;3.80;;;3.00;;
10977;SDS011;5542;48.272;10.794;2024-01-15T07:28:35;3.67;;;2.47;;
10977;SDS011;5542;48.272;10.794;2024-01-15T07:31:02;4.13;;;2.42;;
10977;SDS011;5542;48.272;10.794;2024-01-15T07:33:32;3.05;;;2.33;;
10977;SDS011;5542;48.272;10.794;2024-01-15T07:35:59;2.67;;;2.33;;
10977;SDS011;5542;48.272;10.794;2024-01-15T07:38:27;2.20;;;2.00;;
10977;SDS011;5542;48.272;10.794;2024-01-15T07:40:54;2.03;;;1.83;;
10977;SDS011;5542;48.272;10.794;2024-01-15T07:43:21;2.20;;;1.80;;
10977;SDS011;5542;48.272;10.794;2024-01-15T07:45:48;1.98;;;1.77;;
10977;SDS011;5542;48.272;10.794;2024-01-15T07:48:14;2.30;;;2.00;;
10977;SDS011;5542;48.272;10.794;2024-01-15T07:50:42;2.53;;;1.80;;
10977;SDS011;5542;48.272;10.794;2024-01-15T07:53:09;3.13;;;2.30;;
10977;SDS011;5542;48.272;10.794;2024-01-15T07:55:35;2.60;;;1.92;;
10977;SDS011;5542;48.272;10.794;2024-01-15T07:58:02;2.40;;;1.83;;
10977;SDS011;5542;48.272;10.794;2024-01-15T08:00:29;2.80;;;2.40;;
10977;SDS011;5542;48.272;10.794;2024-01-15T08:02:56;2.90;;;2.20;;
10977;SDS011;5542;48.272;10.794;2024-01-15T08:05:22;3.08;;;2.20;;
10977;SDS011;5542;48.272;10.794;2024-01-15T08:07:50;4.18;;;2.88;;
10977;SDS011;5542;48.272;10.794;2024-01-15T08:10:17;5.65;;;3.20;;
10977;SDS011;5542;48.272;10.794;2024-01-15T08:12:44;7.40;;;4.28;;
10977;SDS011;5542;48.272;10.794;2024-01-15T08:15:10;5.20;;;3.17;;
10977;SDS011;5542;48.272;10.794;2024-01-15T08:17:37;23.25;;;10.98;;
10977;SDS011;5542;48.272;10.794;2024-01-15T08:20:04;3.83;;;2.83;;
10977;SDS011;5542;48.272;10.794;2024-01-15T08:22:31;3.80;;;2.80;;
10977;SDS011;5542;48.272;10.794;2024-01-15T08:24:59;3.33;;;2.63;;
10977;SDS011;5542;48.272;10.794;2024-01-15T08:27:25;2.55;;;2.08;;
10977;SDS011;5542;48.272;10.794;2024-01-15T08:29:53;3.90;;;2.70;;
10977;SDS011;5542;48.272;10.794;2024-01-15T08:32:20;4.47;;;2.70;;
10977;SDS011;5542;48.272;10.794;2024-01-15T08:34:46;5.15;;;2.90;;
10977;SDS011;5542;48.272;10.794;2024-01-15T08:37:15;2.97;;;2.65;;
10977;SDS011;5542;48.272;10.794;2024-01-15T08:39:42;2.83;;;2.25;;
10977;SDS011;5542;48.272;10.794;2024-01-15T08:42:10;3.38;;;2.97;;
10977;SDS011;5542;48.272;10.794;2024-01-15T08:44:37;2.95;;;2.42;;
10977;SDS011;5542;48.272;10.794;2024-01-15T08:47:04;2.47;;;2.25;;
10977;SDS011;5542;48.272;10.794;2024-01-15T08:49:31;2.53;;;2.30;;
10977;SDS011;5542;48.272;10.794;2024-01-15T08:51:58;3.92;;;2.00;;
10977;SDS011;5542;48.272;10.794;2024-01-15T08:54:24;2.58;;;2.20;;
10977;SDS011;5542;48.272;10.794;2024-01-15T08:56:51;2.80;;;2.33;;
10977;SDS011;5542;48.272;10.794;2024-01-15T08:59:19;2.20;;;1.93;;
10977;SDS011;5542;48.272;10.794;2024-01-15T09:01:49;1.88;;;1.77;;
10977;SDS011;5542;48.272;10.794;2024-01-15T09:04:16;2.03;;;1.50;;
10977;SDS011;5542;48.272;10.794;2024-01-15T09:06:44;2.20;;;1.85;;
10977;SDS011;5542;48.272;10.794;2024-01-15T09:09:11;2.10;;;1.90;;
10977;SDS011;5542;48.272;10.794;2024-01-15T09:11:38;1.40;;;1.30;;
10977;SDS011;5542;48.272;10.794;2024-01-15T09:14:05;2.35;;;2.08;;
10977;SDS011;5542;48.272;10.794;2024-01-15T09:16:33;1.63;;;1.52;;
10977;SDS011;5542;48.272;10.794;2024-01-15T09:18:59;1.40;;;1.27;;
10977;SDS011;5542;48.272;10.794;2024-01-15T09:21:26;1.25;;;1.13;;
10977;SDS011;5542;48.272;10.794;2024-01-15T09:23:53;3.20;;;2.38;;
10977;SDS011;5542;48.272;10.794;2024-01-15T09:26:19;2.72;;;1.15;;
10977;SDS011;5542;48.272;10.794;2024-01-15T09:28:46;2.03;;;1.35;;
10977;SDS011;5542;48.272;10.794;2024-01-15T09:31:12;2.55;;;2.35;;
10977;SDS011;5542;48.272;10.794;2024-01-15T09:33:40;2.17;;;1.55;;
10977;SDS011;5542;48.272;10.794;2024-01-15T09:36:07;1.75;;;1.60;;
10977;SDS011;5542;48.272;10.794;2024-01-15T09:38:34;1.88;;;1.58;;
10977;SDS011;5542;48.272;10.794;2024-01-15T09:41:01;2.60;;;2.03;;
10977;SDS011;5542;48.272;10.794;2024-01-15T09:43:28;3.95;;;3.38;;
10977;SDS011;5542;48.272;10.794;2024-01-15T09:45:55;2.70;;;1.93;;
10977;SDS011;5542;48.272;10.794;2024-01-15T09:48:22;3.35;;;3.05;;
10977;SDS011;5542;48.272;10.794;2024-01-15T09:50:50;5.00;;;3.35;;
10977;SDS011;5542;48.272;10.794;2024-01-15T09:53:18;21.13;;;10.88;;
10977;SDS011;5542;48.272;10.794;2024-01-15T09:55:46;3.63;;;2.93;;
10977;SDS011;5542;48.272;10.794;2024-01-15T09:58:16;2.90;;;2.50;;
10977;SDS011;5542;48.272;10.794;2024-01-15T10:00:42;3.63;;;3.33;;
10977;SDS011;5542;48.272;10.794;2024-01-15T10:03:10;3.22;;;2.60;;
10977;SDS011;5542;48.272;10.794;2024-01-15T10:05:37;3.80;;;2.80;;
10977;SDS011;5542;48.272;10.794;2024-01-15T10:08:05;4.15;;;2.90;;
10977;SDS011;5542;48.272;10.794;2024-01-15T10:10:33;3.08;;;2.58;;
10977;SDS011;5542;48.272;10.794;2024-01-15T10:13:03;3.10;;;2.67;;
10977;SDS011;5542;48.272;10.794;2024-01-15T10:15:33;3.00;;;2.70;;
10977;SDS011;5542;48.272;10.794;2024-01-15T10:18:01;2.85;;;2.55;;
10977;SDS011;5542;48.272;10.794;2024-01-15T10:20:28;3.45;;;2.72;;
10977;SDS011;5542;48.272;10.794;2024-01-15T10:22:55;3.13;;;2.75;;
10977;SDS011;5542;48.272;10.794;2024-01-15T10:25:23;3.60;;;2.90;;
10977;SDS011;5542;48.272;10.794;2024-01-15T10:27:59;3.30;;;2.60;;
10977;SDS011;5542;48.272;10.794;2024-01-15T10:30:27;5.20;;;3.50;;
10977;SDS011;5542;48.272;10.794;2024-01-15T10:32:57;4.13;;;3.03;;
10977;SDS011;5542;48.272;10.794;2024-01-15T10:35:26;2.40;;;2.20;;
10977;SDS011;5542;48.272;10.794;2024-01-15T10:37:53;2.60;;;2.40;;
10977;SDS011;5542;48.272;10.794;2024-01-15T10:40:20;4.28;;;2.85;;
10977;SDS011;5542;48.272;10.794;2024-01-15T10:42:48;2.78;;;2.47;;
10977;SDS011;5542;48.272;10.794;2024-01-15T10:45:14;2.92;;;2.58;;
10977;SDS011;5542;48.272;10.794;2024-01-15T10:47:41;3.25;;;2.40;;
10977;SDS011;5542;48.272;10.794;2024-01-15T10:50:09;3.00;;;2.50;;
10977;SDS011;5542;48.272;10.794;2024-01-15T10:52:36;2.47;;;2.27;;
10977;SDS011;5542;48.272;10.794;2024-01-15T10:55:03;2.30;;;2.10;;
10977;SDS011;5542;48.272;10.794;2024-01-15T10:57:31;2.88;;;2.28;;
10977;SDS011;5542;48.272;10.794;2024-01-15T10:59:59;2.92;;;2.20;;
10977;SDS011;5542;48.272;10.794;2024-01-15T11:02:29;2.58;;;2.25;;
10977;SDS011;5542;48.272;10.794;2024-01-15T11:04:56;2.60;;;2.17;;
10977;SDS011;5542;48.272;10.794;2024-01-15T11:07:22;2.55;;;2.10;;
10977;SDS011;5542;48.272;10.794;2024-01-15T11:09:50;3.17;;;2.60;;
10977;SDS011;5542;48.272;10.794;2024-01-15T11:12:17;2.80;;;2.20;;
10977;SDS011;5542;48.272;10.794;2024-01-15T11:14:45;3.25;;;2.35;;
10977;SDS011;5542;48.272;10.794;2024-01-15T11:17:14;3.80;;;2.50;;
10977;SDS011;5542;48.272;10.794;2024-01-15T11:19:45;8.60;;;4.78;;
10977;SDS011;5542;48.272;10.794;2024-01-15T11:25:14;3.00;;;2.50;;
10977;SDS011;5542;48.272;10.794;2024-01-15T11:27:41;5.20;;;3.47;;
10977;SDS011;5542;48.272;10.794;2024-01-15T11:30:09;2.63;;;2.33;;
10977;SDS011;5542;48.272;10.794;2024-01-15T11:32:39;2.97;;;2.65;;
10977;SDS011;5542;48.272;10.794;2024-01-15T11:35:07;3.03;;;2.70;;
10977;SDS011;5542;48.272;10.794;2024-01-15T11:40:24;4.00;;;2.63;;
10977;SDS011;5542;48.272;10.794;2024-01-15T11:43:03;3.87;;;3.27;;
10977;SDS011;5542;48.272;10.794;2024-01-15T11:45:31;2.43;;;2.23;;
10977;SDS011;5542;48.272;10.794;2024-01-15T11:48:13;4.45;;;3.10;;
10977;SDS011;5542;48.272;10.794;2024-01-15T11:50:41;5.38;;;2.85;;
10977;SDS011;5542;48.272;10.794;2024-01-15T11:53:13;2.47;;;2.13;;
10977;SDS011;5542;48.272;10.794;2024-01-15T11:55:44;2.83;;;2.50;;
10977;SDS011;5542;48.272;10.794;2024-01-15T11:58:13;3.00;;;2.60;;
10977;SDS011;5542;48.272;10.794;2024-01-15T12:00:42;3.60;;;2.65;;
10977;SDS011;5542;48.272;10.794;2024-01-15T12:03:10;4.40;;;2.67;;
10977;SDS011;5542;48.272;10.794;2024-01-15T12:05:38;2.88;;;2.42;;
10977;SDS011;5542;48.272;10.794;2024-01-15T12:08:07;2.63;;;2.42;;
10977;SDS011;5542;48.272;10.794;2024-01-15T12:10:35;2.70;;;2.47;;
10977;SDS011;5542;48.272;10.794;2024-01-15T12:13:04;2.40;;;2.17;;
10977;SDS011;5542;48.272;10.794;2024-01-15T12:15:35;2.53;;;2.30;;
10977;SDS011;5542;48.272;10.794;2024-01-15T12:18:03;3.78;;;2.50;;
10977;SDS011;5542;48.272;10.794;2024-01-15T12:20:30;3.17;;;2.80;;
10977;SDS011;5542;48.272;10.794;2024-01-15T12:23:00;3.22;;;2.70;;
10977;SDS011;5542;48.272;10.794;2024-01-15T12:25:28;2.40;;;2.20;;
10977;SDS011;5542;48.272;10.794;2024-01-15T12:27:56;2.20;;;2.00;;
10977;SDS011;5542;48.272;10.794;2024-01-15T12:30:23;3.03;;;2.47;;
10977;SDS011;5542;48.272;10.794;2024-01-15T12:32:49;3.05;;;2.67;;
10977;SDS011;5542;48.272;10.794;2024-01-15T12:35:16;3.80;;;2.35;;
10977;SDS011;5542;48.272;10.794;2024-01-15T12:37:43;2.85;;;2.20;;
10977;SDS011;5542;48.272;10.794;2024-01-15T12:40:13;2.72;;;2.08;;
10977;SDS011;5542;48.272;10.794;2024-01-15T12:42:39;3.10;;;2.53;;
10977;SDS011;5542;48.272;10.794;2024-01-15T12:45:06;3.25;;;2.83;;
10977;SDS011;5542;48.272;10.794;2024-01-15T12:47:35;3.92;;;3.40;;
10977;SDS011;5542;48.272;10.794;2024-01-15T12:50:02;2.60;;;2.40;;
10977;SDS011;5542;48.272;10.794;2024-01-15T12:52:33;3.05;;;2.58;;
10977;SDS011;5542;48.272;10.794;2024-01-15T12:54:59;3.33;;;2.47;;
10977;SDS011;5542;48.272;10.794;2024-01-15T12:57:28;4.93;;;3.58;;
10977;SDS011;5542;48.272;10.794;2024-01-15T12:59:54;3.33;;;2.95;;
10977;SDS011;5542;48.272;10.794;2024-01-15T13:02:21;3.40;;;2.83;;
10977;SDS011;5542;48.272;10.794;2024-01-15T13:04:48;3.65;;;2.35;;
10977;SDS011;5542;48.272;10.794;2024-01-15T13:07:15;3.88;;;2.90;;
10977;SDS011;5542;48.272;10.794;2024-01-15T13:09:42;3.45;;;2.80;;
10977;SDS011;5542;48.272;10.794;2024-01-15T13:12:08;3.50;;;2.90;;
10977;SDS011;5542;48.272;10.794;2024-01-15T13:14:36;4.40;;;3.30;;
10977;SDS011;5542;48.272;10.794;2024-01-15T13:17:03;3.57;;;2.97;;
10977;SDS011;5542;48.272;10.794;2024-01-15T13:19:30;6.97;;;5.18;;
10977;SDS011;5542;48.272;10.794;2024-01-15T13:21:58;4.32;;;3.55;;
10977;SDS011;5542;48.272;10.794;2024-01-15T13:24:25;5.60;;;3.60;;
10977;SDS011;5542;48.272;10.794;2024-01-15T13:26:52;5.10;;;3.38;;
10977;SDS011;5542;48.272;10.794;2024-01-15T13:29:19;3.90;;;3.17;;
10977;SDS011;5542;48.272;10.794;2024-01-15T13:31:47;4.78;;;3.40;;
10977;SDS011;5542;48.272;10.794;2024-01-15T13:34:14;5.30;;;2.87;;
10977;SDS011;5542;48.272;10.794;2024-01-15T13:36:40;3.60;;;3.20;;
10977;SDS011;5542;48.272;10.794;2024-01-15T13:39:07;9.60;;;6.10;;
10977;SDS011;5542;48.272;10.794;2024-01-15T13:41:34;4.20;;;3.22;;
10977;SDS011;5542;48.272;10.794;2024-01-15T13:44:01;5.90;;;3.70;;
10977;SDS011;5542;48.272;10.794;2024-01-15T13:46:28;4.75;;;3.70;;
10977;SDS011;5542;48.272;10.794;2024-01-15T13:48:56;4.68;;;3.70;;
10977;SDS011;5542;48.272;10.794;2024-01-15T13:51:23;5.43;;;3.90;;
10977;SDS011;5542;48.272;10.794;2024-01-15T13:53:50;5.37;;;4.00;;
10977;SDS011;5542;48.272;10.794;2024-01-15T13:56:18;4.88;;;3.67;;
10977;SDS011;5542;48.272;10.794;2024-01-15T13:58:44;5.10;;;3.33;;
10977;SDS011;5542;48.272;10.794;2024-01-15T14:01:13;6.20;;;4.22;;
10977;SDS011;5542;48.272;10.794;2024-01-15T14:03:39;4.05;;;3.38;;
10977;SDS011;5542;48.272;10.794;2024-01-15T14:06:07;11.27;;;5.43;;
10977;SDS011;5542;48.272;10.794;2024-01-15T14:08:35;5.18;;;3.50;;
10977;SDS011;5542;48.272;10.794;2024-01-15T14:11:02;7.07;;;4.82;;
10977;SDS011;5542;48.272;10.794;2024-01-15T14:13:31;7.07;;;3.70;;
10977;SDS011;5542;48.272;10.794;2024-01-15T14:15:57;5.80;;;4.03;;
10977;SDS011;5542;48.272;10.794;2024-01-15T14:18:24;6.43;;;4.38;;
10977;SDS011;5542;48.272;10.794;2024-01-15T14:20:51;4.68;;;3.60;;
10977;SDS011;5542;48.272;10.794;2024-01-15T14:23:19;6.28;;;4.75;;
10977;SDS011;5542;48.272;10.794;2024-01-15T14:25:46;4.57;;;3.92;;
10977;SDS011;5542;48.272;10.794;2024-01-15T14:28:13;4.18;;;3.50;;
10977;SDS011;5542;48.272;10.794;2024-01-15T14:30:39;3.97;;;3.33;;
10977;SDS011;5542;48.272;10.794;2024-01-15T14:33:06;4.88;;;3.53;;
10977;SDS011;5542;48.272;10.794;2024-01-15T14:35:33;5.13;;;4.03;;
10977;SDS011;5542;48.272;10.794;2024-01-15T14:37:59;4.83;;;3.80;;
10977;SDS011;5542;48.272;10.794;2024-01-15T14:40:27;4.68;;;3.50;;
10977;SDS011;5542;48.272;10.794;2024-01-15T14:42:54;5.95;;;3.60;;
10977;SDS011;5542;48.272;10.794;2024-01-15T14:45:21;4.55;;;3.55;;
10977;SDS011;5542;48.272;10.794;2024-01-15T14:47:48;4.07;;;3.50;;
10977;SDS011;5542;48.272;10.794;2024-01-15T14:50:15;5.00;;;3.70;;
10977;SDS011;5542;48.272;10.794;2024-01-15T14:52:41;4.22;;;3.15;;